La Harpe, Kansas
Current Conditions -  °F | °C
As of 3:52 AM on Wednesday 26 Nov 2014 (Local Time) from KCNU Reporting Station
Overcast Overcast  
Wind Chill: 35°   Ceiling: 9000
Heat Index: 40°   Visibility: 10mi
Dew Point: 25°   Wind: 7mph
Humidity: 55%   Direction: 210°SSW
Pressure: 29.96"   Gusts: NA
Location:  37.92°N, 95.3°W
Report Text: KCNU 260952Z AUTO 21006KT 10SM OVC090 04/M04 A2996 RMK AO2 SLP146 T00441039
Loading
Personal Weather Stations






























Interactive Weather Map New forecast layout! Learn more

10-Day Weather Forecast

Advertisements
Track Severe Weather on mobile